Terminal Aerodrome Forecast
Issued by NWS Pueblo, CO

Home | Current Version | Previous Version | Text Only | Print | Product List | Glossary On
Versions: 1 2 3 4 5 6 7 8 9 10 11 12 13 14 15 16 17 18 19 20 21 22 23 24 25 26 27 28 29 30 31 32 33 34 35
000
FTUS45 KPUB 220524
TAFALS
TAF
KALS 220524Z 2206/2306 15012KT P6SM VCSH FEW040 BKN090
     FM221000 16008KT P6SM SCT080 BKN140
     FM221600 20014KT P6SM SCT120 SCT200
     FM221900 21015KT P6SM SCT080 SCT150=

USA.gov is the U.S. government's official web portal to all federal, state and local government web resources and services.